Time;durP1;ratioP1;P1;durP2;ratioP2;P2;SDS_P1;SDS_P2;PMS_P1;PMS_P2;Temp;Humidity;BMP_temperature;BMP_pressure;BME280_temperature;BME280_humidity;BME280_pressure;Samples;Min_cycle;Max_cycle;Signal;HPM_P1;HPM_P2
2022/06/24 00:00:48;;;;;;;;;;;;;;;14.44;100.00;90882.31;5071926;28;20003;-72
2022/06/24 00:03:17;;;;;;;;;;;;;;;14.43;100.00;90883.41;5071974;28;19912;-72
2022/06/24 00:05:43;;;;;;;;;;;;;;;14.38;100.00;90880.94;5071926;28;19992;-72
2022/06/24 00:08:08;;;;;;;;;;;;;;;14.33;100.00;90867.75;5071922;28;20344;-71
2022/06/24 00:10:34;;;;;;;;;;;;;;;14.26;100.00;90867.53;5071822;28;19919;-72
2022/06/24 00:13:00;;;;;;;;;;;;;;;14.20;100.00;90861.63;5071806;28;19912;-72
2022/06/24 00:15:27;;;;;;;;;;;;;;;14.16;100.00;90871.41;5071807;28;19942;-71
2022/06/24 00:17:52;;;;;;;;;;;;;;;14.18;100.00;90871.06;5071782;28;19916;-71
2022/06/24 00:20:18;;;;;;;;;;;;;;;14.14;100.00;90878.19;5071819;28;19923;-72
2022/06/24 00:22:45;;;;;;;;;;;;;;;14.12;100.00;90883.88;5071661;28;19982;-72
2022/06/24 00:25:17;;;;;;;;;;;;;;;14.15;100.00;90882.44;5071755;28;19913;-71
2022/06/24 00:27:43;;;;;;;;;;;;;;;13.98;100.00;90892.19;5071678;28;19920;-71
2022/06/24 00:30:10;;;;;;;;;;;;;;;13.86;100.00;90889.47;5071646;28;19919;-72
2022/06/24 00:32:36;;;;;;;;;;;;;;;13.87;100.00;90890.25;5071483;28;19946;-71
2022/06/24 00:35:03;;;;;;;;;;;;;;;13.83;100.00;90903.50;5071575;28;19916;-71
2022/06/24 00:37:30;;;;;;;;;;;;;;;13.79;100.00;90902.59;5071603;28;19943;-72
2022/06/24 00:39:59;;;;;;;;;;;;;;;13.78;100.00;90893.81;5071537;28;19920;-71
2022/06/24 00:42:26;;;;;;;;;;;;;;;13.83;100.00;90903.50;5071302;28;19920;-72
2022/06/24 00:45:06;;;;;;;;;;;;;;;13.86;100.00;90902.84;5071546;28;19913;-72
2022/06/24 00:47:33;;;;;;;;;;;;;;;13.91;100.00;90899.22;5071453;28;19965;-72
2022/06/24 00:50:00;;;;;;;;;;;;;;;13.91;100.00;90894.63;5071439;28;19913;-71
2022/06/24 00:52:25;;;;;;;;;;;;;;;13.89;100.00;90896.88;5071275;28;20010;-72
2022/06/24 00:54:51;;;;;;;;;;;;;;;13.88;100.00;90889.94;5074932;28;19999;-71
2022/06/24 00:57:17;;;;;;;;;;;;;;;13.85;100.00;90887.91;5075421;28;20345;-72
2022/06/24 00:59:42;;;;;;;;;;;;;;;13.88;100.00;90881.91;5075407;28;19923;-72
2022/06/24 01:02:09;;;;;;;;;;;;;;;13.90;100.00;90878.94;5075299;28;19912;-72
2022/06/24 01:04:35;;;;;;;;;;;;;;;13.83;100.00;90876.78;5075267;28;19913;-71
2022/06/24 01:07:00;;;;;;;;;;;;;;;13.90;100.00;90879.72;5075189;28;19917;-71
2022/06/24 01:09:26;;;;;;;;;;;;;;;13.88;100.00;90881.91;5075266;28;20313;-71
2022/06/24 01:11:51;;;;;;;;;;;;;;;13.81;100.00;90880.88;5075219;28;19916;-73
2022/06/24 01:14:17;;;;;;;;;;;;;;;13.73;100.00;90891.34;5075094;28;20469;-73
2022/06/24 01:16:42;;;;;;;;;;;;;;;13.60;100.00;90883.59;5075056;28;19966;-73
2022/06/24 01:19:14;;;;;;;;;;;;;;;13.59;100.00;90892.72;5074947;28;19918;-73
2022/06/24 01:21:41;;;;;;;;;;;;;;;13.58;100.00;90897.28;5074827;28;19917;-73
2022/06/24 01:24:06;;;;;;;;;;;;;;;13.62;100.00;90902.75;5074911;28;20011;-72
2022/06/24 01:26:32;;;;;;;;;;;;;;;13.66;100.00;90904.44;5074812;28;19959;-72
2022/06/24 01:28:57;;;;;;;;;;;;;;;13.67;100.00;90907.91;5074809;28;19919;-72
2022/06/24 01:31:22;;;;;;;;;;;;;;;13.66;100.00;90911.69;5074556;28;19912;-72
2022/06/24 01:33:48;;;;;;;;;;;;;;;13.60;100.00;90918.34;5074710;28;19965;-73
2022/06/24 01:36:13;;;;;;;;;;;;;;;13.58;100.00;90913.31;5074641;28;19912;-73
2022/06/24 01:38:39;;;;;;;;;;;;;;;13.53;100.00;90907.38;5074656;28;20401;-72
2022/06/24 01:41:04;;;;;;;;;;;;;;;13.47;100.00;90909.47;5074445;28;20384;-72
2022/06/24 01:43:30;;;;;;;;;;;;;;;13.42;100.00;90920.38;5074363;28;19959;-72
2022/06/24 01:45:56;;;;;;;;;;;;;;;13.34;100.00;90916.63;5074511;28;19969;-72
2022/06/24 01:48:21;;;;;;;;;;;;;;;13.24;100.00;90919.69;5074467;28;19916;-72
2022/06/24 01:50:46;;;;;;;;;;;;;;;13.17;100.00;90914.81;5074380;28;19912;-72
2022/06/24 01:53:12;;;;;;;;;;;;;;;13.07;100.00;90925.09;5074304;28;19986;-73
2022/06/24 01:55:37;;;;;;;;;;;;;;;13.09;100.00;90933.56;5074326;28;20414;-72
2022/06/24 01:58:02;;;;;;;;;;;;;;;13.01;100.00;90931.75;5074309;28;20390;-72
2022/06/24 02:00:28;;;;;;;;;;;;;;;12.96;100.00;90930.03;5074209;28;19952;-72
2022/06/24 02:02:54;;;;;;;;;;;;;;;12.92;100.00;90933.66;5074262;28;19912;-71
2022/06/24 02:05:19;;;;;;;;;;;;;;;12.91;100.00;90930.22;5073606;28;19913;-72
2022/06/24 02:07:45;;;;;;;;;;;;;;;12.89;100.00;90935.88;5074136;28;20441;-72
2022/06/24 02:15:38;;;;;;;;;;;;;;;12.77;100.00;90914.41;5073992;28;20360;-71
2022/06/24 02:18:03;;;;;;;;;;;;;;;12.75;100.00;90913.16;5073986;28;19912;-71
2022/06/24 02:20:28;;;;;;;;;;;;;;;12.74;100.00;90901.72;5073775;28;20024;-72
2022/06/24 02:22:54;;;;;;;;;;;;;;;12.75;100.00;90894.50;5074005;28;20452;-72
2022/06/24 02:25:19;;;;;;;;;;;;;;;12.73;100.00;90900.16;5074043;28;20407;-71
2022/06/24 02:27:45;;;;;;;;;;;;;;;12.75;100.00;90903.28;5073730;28;19939;-71
2022/06/24 02:30:11;;;;;;;;;;;;;;;12.79;100.00;90914.91;5073665;28;19912;-72
2022/06/24 02:32:36;;;;;;;;;;;;;;;12.75;100.00;90916.63;5073546;28;19912;-71
2022/06/24 02:35:01;;;;;;;;;;;;;;;12.70;100.00;90916.81;5073597;28;20089;-72
2022/06/24 02:37:27;;;;;;;;;;;;;;;12.62;100.00;90922.97;5073468;28;19913;-71
2022/06/24 02:39:52;;;;;;;;;;;;;;;12.53;100.00;90920.34;5073489;28;19930;-71
2022/06/24 02:42:18;;;;;;;;;;;;;;;12.47;100.00;90918.97;5073250;28;19920;-71
2022/06/24 02:44:43;;;;;;;;;;;;;;;12.43;100.00;90915.34;5073331;28;19952;-71
2022/06/24 02:47:08;;;;;;;;;;;;;;;12.38;100.00;90918.19;5073350;28;19947;-72
2022/06/24 02:49:34;;;;;;;;;;;;;;;12.39;100.00;90921.66;5073278;28;19913;-71
2022/06/24 02:51:59;;;;;;;;;;;;;;;12.36;100.00;90920.41;5073109;28;20298;-71
2022/06/24 02:54:24;;;;;;;;;;;;;;;12.40;100.00;90921.31;5073188;28;19950;-69
2022/06/24 02:56:49;;;;;;;;;;;;;;;12.43;100.00;90927.91;5073109;28;19924;-70
2022/06/24 02:59:15;;;;;;;;;;;;;;;12.39;100.00;90925.09;5073117;28;19916;-70
2022/06/24 03:01:40;;;;;;;;;;;;;;;12.42;100.00;90929.00;5072984;28;19912;-71
2022/06/24 03:04:06;;;;;;;;;;;;;;;12.45;100.00;90936.38;5072960;28;19939;-72
2022/06/24 03:06:31;;;;;;;;;;;;;;;12.52;100.00;90923.34;5072938;28;19912;-70
2022/06/24 03:08:56;;;;;;;;;;;;;;;12.67;100.00;90917.47;5072898;28;20309;-70
2022/06/24 03:11:21;;;;;;;;;;;;;;;12.71;100.00;90913.03;5072623;28;19955;-71
2022/06/24 03:13:47;;;;;;;;;;;;;;;12.93;100.00;90908.53;5072792;28;20046;-71
2022/06/24 03:16:12;;;;;;;;;;;;;;;13.09;100.00;90904.19;5071972;28;20401;-71
2022/06/24 03:18:37;;;;;;;;;;;;;;;13.25;100.00;90899.88;5072654;28;19912;-71
2022/06/24 03:21:05;;;;;;;;;;;;;;;13.33;100.00;90900.94;5072764;28;19912;-71
2022/06/24 03:23:30;;;;;;;;;;;;;;;13.41;100.00;90892.88;5072641;28;20402;-71
2022/06/24 03:25:55;;;;;;;;;;;;;;;13.59;100.00;90908.75;5072799;28;19926;-72
2022/06/24 03:28:21;;;;;;;;;;;;;;;13.69;100.00;90905.69;5072575;28;19913;-71
2022/06/24 03:30:46;;;;;;;;;;;;;;;13.46;100.00;90906.03;5072417;28;19995;-70
2022/06/24 03:33:12;;;;;;;;;;;;;;;13.49;100.00;90900.03;5072385;28;19916;-70
2022/06/24 03:35:37;;;;;;;;;;;;;;;13.57;100.00;90894.91;5057186;28;19921;-70
2022/06/24 03:38:03;;;;;;;;;;;;;;;13.54;100.00;90890.22;5052221;28;19912;-70
2022/06/24 03:40:28;;;;;;;;;;;;;;;13.79;100.00;90898.03;5051853;28;20370;-71
2022/06/24 03:42:54;;;;;;;;;;;;;;;13.90;100.00;90898.44;5051994;28;19916;-71
2022/06/24 03:45:19;;;;;;;;;;;;;;;14.04;100.00;90898.94;5052058;28;19913;-71
2022/06/24 03:47:44;;;;;;;;;;;;;;;14.31;100.00;90912.81;5052080;28;19916;-72
2022/06/24 03:50:10;;;;;;;;;;;;;;;14.55;100.00;90896.81;5051960;28;20456;-70
2022/06/24 03:52:35;;;;;;;;;;;;;;;14.64;100.00;90908.19;5051887;28;20385;-72
2022/06/24 03:55:00;;;;;;;;;;;;;;;14.59;100.00;90897.72;5051350;28;19912;-70
2022/06/24 03:57:26;;;;;;;;;;;;;;;14.57;100.00;90902.63;5051856;28;19959;-70
2022/06/24 03:59:51;;;;;;;;;;;;;;;14.44;100.00;90892.22;5051791;28;20348;-70
2022/06/24 04:02:18;;;;;;;;;;;;;;;14.41;100.00;90895.56;5051667;28;19917;-71
2022/06/24 04:04:44;;;;;;;;;;;;;;;14.42;100.00;90895.22;5051750;28;20003;-71
2022/06/24 04:07:09;;;;;;;;;;;;;;;14.42;100.00;90897.88;5051653;28;19954;-71
2022/06/24 04:09:34;;;;;;;;;;;;;;;14.46;100.00;90898.03;5051526;28;19916;-71
2022/06/24 04:12:00;;;;;;;;;;;;;;;14.62;100.00;90891.69;5051423;28;19923;-71
2022/06/24 04:17:09;;;;;;;;;;;;;;;14.77;100.00;90884.13;5051498;28;19920;-70
2022/06/24 04:19:35;;;;;;;;;;;;;;;14.75;100.00;90892.50;5051693;28;20322;-70
2022/06/24 04:22:01;;;;;;;;;;;;;;;14.71;100.00;90885.47;5051574;28;19962;-70
2022/06/24 04:24:26;;;;;;;;;;;;;;;14.75;100.00;90878.31;5051664;28;19967;-69
2022/06/24 04:26:51;;;;;;;;;;;;;;;14.73;100.00;90880.56;5051470;28;20294;-69
2022/06/24 04:29:17;;;;;;;;;;;;;;;14.84;100.00;90887.03;5051640;28;19920;-69
2022/06/24 04:31:42;;;;;;;;;;;;;;;14.89;100.00;90889.47;5050115;28;19956;-70
2022/06/24 04:34:07;;;;;;;;;;;;;;;15.00;100.00;90900.53;5050239;28;19912;-70
2022/06/24 04:36:32;;;;;;;;;;;;;;;15.05;100.00;90909.13;5051530;28;19924;-70
2022/06/24 04:38:58;;;;;;;;;;;;;;;15.22;100.00;90908.88;5050133;28;19920;-70
2022/06/24 04:41:23;;;;;;;;;;;;;;;15.35;100.00;90903.50;5051287;28;19917;-70
2022/06/24 04:43:48;;;;;;;;;;;;;;;15.48;100.00;90902.38;5051340;28;19921;-70
2022/06/24 04:46:14;;;;;;;;;;;;;;;15.64;100.00;90900.59;5051396;28;20382;-70
2022/06/24 04:48:39;;;;;;;;;;;;;;;15.80;100.00;90893.38;5051447;28;19919;-70
2022/06/24 04:51:05;;;;;;;;;;;;;;;15.96;100.00;90898.03;5051155;28;20011;-70
2022/06/24 04:53:31;;;;;;;;;;;;;;;16.08;100.00;90895.25;5051282;28;19912;-69
2022/06/24 04:55:57;;;;;;;;;;;;;;;16.06;100.00;90898.28;5051048;28;19912;-70
2022/06/24 04:58:22;;;;;;;;;;;;;;;16.10;100.00;90899.19;5051260;28;20070;-69
2022/06/24 05:00:47;;;;;;;;;;;;;;;16.13;100.00;90903.09;5051166;28;19999;-70
2022/06/24 05:03:13;;;;;;;;;;;;;;;16.39;100.00;90902.59;5050961;28;20229;-70
2022/06/24 05:05:38;;;;;;;;;;;;;;;16.64;100.00;90898.66;5051074;28;19956;-70
2022/06/24 05:08:04;;;;;;;;;;;;;;;16.52;100.00;90908.69;5051011;28;19913;-69
2022/06/24 05:10:29;;;;;;;;;;;;;;;16.24;100.00;90922.91;5051003;28;19913;-70
2022/06/24 05:12:55;;;;;;;;;;;;;;;16.35;100.00;90913.25;5051021;28;19923;-69
2022/06/24 05:15:20;;;;;;;;;;;;;;;16.35;100.00;90893.69;5051326;28;19917;-70
2022/06/24 05:17:46;;;;;;;;;;;;;;;16.50;100.00;90908.25;5050979;28;20310;-70
2022/06/24 05:20:11;;;;;;;;;;;;;;;16.60;100.00;90921.97;5050827;28;20003;-71
2022/06/24 05:22:38;;;;;;;;;;;;;;;16.64;100.00;90927.44;5050864;28;19912;-71
2022/06/24 05:25:04;;;;;;;;;;;;;;;17.21;100.00;90928.88;5050720;28;19970;-71
2022/06/24 05:27:29;;;;;;;;;;;;;;;17.71;100.00;90930.78;5050770;28;19916;-70
2022/06/24 05:29:55;;;;;;;;;;;;;;;17.76;100.00;90930.50;5050691;28;19923;-71
2022/06/24 05:32:20;;;;;;;;;;;;;;;17.84;100.00;90932.25;5050829;28;19924;-71
2022/06/24 05:34:45;;;;;;;;;;;;;;;18.06;100.00;90935.38;5050795;28;20301;-71
2022/06/24 05:37:11;;;;;;;;;;;;;;;18.09;100.00;90940.03;5049486;28;19962;-70
2022/06/24 05:39:36;;;;;;;;;;;;;;;19.03;100.00;90934.13;5050742;28;19971;-70
2022/06/24 05:42:02;;;;;;;;;;;;;;;19.92;100.00;90935.53;5054178;28;19917;-71
2022/06/24 05:44:27;;;;;;;;;;;;;;;19.91;100.00;90933.19;5054542;28;20460;-71
2022/06/24 05:46:54;;;;;;;;;;;;;;;19.57;100.00;90940.44;5054557;28;19956;-71
2022/06/24 05:49:20;;;;;;;;;;;;;;;19.95;100.00;90955.63;5054516;28;19920;-71
2022/06/24 05:51:45;;;;;;;;;;;;;;;20.70;100.00;90965.47;5054011;28;20442;-71
2022/06/24 05:56:54;;;;;;;;;;;;;;;20.52;100.00;90964.50;5054163;28;19921;-70
2022/06/24 05:59:20;;;;;;;;;;;;;;;22.84;92.15;90972.53;5054091;28;20011;-71
2022/06/24 06:01:45;;;;;;;;;;;;;;;26.34;69.18;90976.63;5052703;28;19964;-72
2022/06/24 06:04:10;;;;;;;;;;;;;;;28.43;57.62;90982.56;5054127;28;19919;-73
2022/06/24 06:06:36;;;;;;;;;;;;;;;29.66;53.20;90977.81;5053993;28;19913;-73
2022/06/24 06:09:01;;;;;;;;;;;;;;;28.75;53.53;90987.47;5054035;28;19967;-72
2022/06/24 06:11:26;;;;;;;;;;;;;;;25.95;58.64;90993.34;5053796;28;19919;-72
2022/06/24 06:13:53;;;;;;;;;;;;;;;22.77;68.00;90991.47;5054025;28;20442;-72
2022/06/24 06:16:19;;;;;;;;;;;;;;;21.53;81.64;90984.09;5053854;28;20379;-71
2022/06/24 06:18:44;;;;;;;;;;;;;;;22.46;83.84;90976.63;5053858;28;19943;-71
2022/06/24 06:21:10;;;;;;;;;;;;;;;23.66;76.74;90976.22;5053672;28;20007;-71
2022/06/24 06:23:36;;;;;;;;;;;;;;;27.36;61.40;90975.94;5053732;28;20356;-71
2022/06/24 06:26:04;;;;;;;;;;;;;;;30.82;49.84;90973.50;5053678;28;19919;-71
2022/06/24 06:28:29;;;;;;;;;;;;;;;30.83;48.66;90985.25;5053670;28;20003;-72
2022/06/24 06:30:55;;;;;;;;;;;;;;;29.29;50.81;90987.22;5053496;28;20370;-71
2022/06/24 06:33:20;;;;;;;;;;;;;;;29.06;52.38;90988.06;5053450;28;19999;-71
2022/06/24 06:35:46;;;;;;;;;;;;;;;28.27;53.57;90985.97;5053451;28;20298;-71
2022/06/24 06:38:11;;;;;;;;;;;;;;;28.06;54.89;90987.03;5053534;28;19913;-71
2022/06/24 06:40:37;;;;;;;;;;;;;;;27.87;56.31;90979.53;5053254;28;19913;-70
2022/06/24 06:43:05;;;;;;;;;;;;;;;29.31;52.23;90985.59;5052953;28;19920;-70
2022/06/24 06:45:30;;;;;;;;;;;;;;;30.24;50.58;90986.31;5053421;28;19916;-71
2022/06/24 06:47:56;;;;;;;;;;;;;;;31.78;47.78;90990.09;5053212;28;19959;-71
2022/06/24 06:50:21;;;;;;;;;;;;;;;28.38;53.18;90986.53;5052895;28;20326;-70
2022/06/24 06:52:46;;;;;;;;;;;;;;;25.81;60.35;90982.56;5052944;28;19921;-71
2022/06/24 06:55:12;;;;;;;;;;;;;;;26.41;60.49;90987.53;5052988;28;19913;-71
2022/06/24 06:57:37;;;;;;;;;;;;;;;28.23;57.71;90985.19;5052817;28;20434;-71
2022/06/24 07:00:03;;;;;;;;;;;;;;;31.47;49.59;90973.28;5052646;28;19940;-71
2022/06/24 07:02:31;;;;;;;;;;;;;;;31.97;47.89;90980.06;5052890;28;19919;-70
2022/06/24 07:04:57;;;;;;;;;;;;;;;31.30;47.88;90980.06;5052852;28;19935;-71
2022/06/24 07:07:22;;;;;;;;;;;;;;;30.31;49.69;90966.94;5052687;28;20370;-71
2022/06/24 07:09:47;;;;;;;;;;;;;;;32.41;45.49;90964.53;5052501;28;19919;-71
2022/06/24 07:12:13;;;;;;;;;;;;;;;34.91;41.66;90960.84;5052660;28;20374;-71
2022/06/24 07:14:41;;;;;;;;;;;;;;;36.11;39.14;90953.94;5052654;28;19913;-71
2022/06/24 07:17:07;;;;;;;;;;;;;;;35.74;38.45;90950.50;5052642;28;19913;-71
2022/06/24 07:19:32;;;;;;;;;;;;;;;37.04;38.75;90953.78;5052549;28;20019;-71
2022/06/24 07:21:58;;;;;;;;;;;;;;;35.92;39.68;90951.25;5052451;28;19913;-73
2022/06/24 07:24:23;;;;;;;;;;;;;;;35.46;40.04;90945.00;5052621;28;19916;-72
2022/06/24 07:26:48;;;;;;;;;;;;;;;36.16;36.89;90945.00;5052506;28;19920;-72
2022/06/24 07:29:14;;;;;;;;;;;;;;;36.26;37.45;90947.25;5052332;28;19912;-72
2022/06/24 07:31:39;;;;;;;;;;;;;;;37.53;35.65;90952.47;5052113;28;19913;-72
2022/06/24 07:34:05;;;;;;;;;;;;;;;38.67;32.14;90949.09;5052307;28;19923;-72
2022/06/24 07:36:30;;;;;;;;;;;;;;;34.53;36.91;90948.16;5052296;28;20356;-71
2022/06/24 07:38:55;;;;;;;;;;;;;;;34.38;36.48;90949.97;5052328;28;20397;-71
2022/06/24 07:41:21;;;;;;;;;;;;;;;33.07;36.61;90945.41;5052317;28;20370;-73
2022/06/24 07:43:46;;;;;;;;;;;;;;;34.99;38.05;90942.72;5051913;28;20425;-72
2022/06/24 07:46:12;;;;;;;;;;;;;;;35.64;35.09;90944.22;5052099;28;19919;-73
2022/06/24 07:48:37;;;;;;;;;;;;;;;33.33;38.46;90948.84;5052029;28;20314;-71
2022/06/24 07:51:13;;;;;;;;;;;;;;;36.23;35.96;90941.91;5051864;28;19947;-71
2022/06/24 07:53:39;;;;;;;;;;;;;;;37.05;33.73;90938.66;5051987;28;20395;-71
2022/06/24 07:58:48;;;;;;;;;;;;;;;36.38;34.43;90940.00;5051741;28;20001;-71
2022/06/24 08:01:13;;;;;;;;;;;;;;;38.91;31.71;90941.31;5051318;28;19948;-72
2022/06/24 08:03:39;;;;;;;;;;;;;;;38.24;32.78;90940.34;5049956;28;20250;-74
2022/06/24 08:06:04;;;;;;;;;;;;;;;39.55;30.87;90936.03;5051859;28;20049;-71
2022/06/24 08:08:29;;;;;;;;;;;;;;;37.18;30.92;90935.63;5051598;28;19966;-73
2022/06/24 08:10:55;;;;;;;;;;;;;;;36.64;32.43;90932.00;5050211;28;19954;-73
2022/06/24 08:13:20;;;;;;;;;;;;;;;36.42;32.47;90931.50;5051622;28;20015;-72
2022/06/24 08:15:46;;;;;;;;;;;;;;;35.96;34.25;90923.38;5047577;28;20347;-71
2022/06/24 08:18:11;;;;;;;;;;;;;;;36.28;33.56;90924.63;5051423;28;20441;-71
2022/06/24 08:20:36;;;;;;;;;;;;;;;35.62;34.48;90924.53;5051180;28;19913;-72
2022/06/24 08:23:02;;;;;;;;;;;;;;;36.64;33.83;90931.25;5050809;28;20334;-70
2022/06/24 08:25:28;;;;;;;;;;;;;;;37.64;33.57;90933.25;5051299;28;20387;-73
2022/06/24 08:27:53;;;;;;;;;;;;;;;40.12;29.28;90933.31;5051277;28;20018;-76
2022/06/24 08:30:19;;;;;;;;;;;;;;;39.71;29.90;90932.66;5051248;28;19959;-77
2022/06/24 08:32:44;;;;;;;;;;;;;;;37.65;29.45;90934.78;5051318;28;20062;-74
2022/06/24 08:35:09;;;;;;;;;;;;;;;38.31;30.12;90928.06;5051042;28;19924;-75
2022/06/24 08:37:35;;;;;;;;;;;;;;;36.40;31.28;90934.75;5050926;28;19923;-75
2022/06/24 08:40:00;;;;;;;;;;;;;;;36.98;30.63;90927.94;5051255;28;19971;-76
2022/06/24 08:42:28;;;;;;;;;;;;;;;34.01;33.95;90927.75;5050813;28;19916;-75
2022/06/24 08:44:53;;;;;;;;;;;;;;;32.41;36.57;90925.22;5050916;28;19999;-76
2022/06/24 08:47:18;;;;;;;;;;;;;;;34.76;34.76;90933.00;5051013;28;19986;-74
2022/06/24 08:49:44;;;;;;;;;;;;;;;35.57;32.49;90933.47;5050899;28;19935;-74
2022/06/24 08:52:12;;;;;;;;;;;;;;;34.89;32.08;90930.13;5050974;28;19916;-76
2022/06/24 08:54:41;;;;;;;;;;;;;;;35.22;32.60;90925.50;5051488;28;19920;-74
2022/06/24 08:57:06;;;;;;;;;;;;;;;37.00;31.35;90928.22;5051021;28;19986;-75
2022/06/24 08:59:31;;;;;;;;;;;;;;;33.83;34.07;90924.88;5050905;28;20374;-71
2022/06/24 09:01:57;;;;;;;;;;;;;;;33.89;33.62;90928.63;5051550;28;19913;-70
2022/06/24 09:04:25;;;;;;;;;;;;;;;36.66;31.82;90928.75;5051293;28;19912;-70
2022/06/24 09:06:51;;;;;;;;;;;;;;;36.73;31.60;90933.94;5050635;28;19916;-71
2022/06/24 09:09:21;;;;;;;;;;;;;;;38.10;29.78;90932.78;5050772;28;20352;-71
2022/06/24 09:11:51;;;;;;;;;;;;;;;37.01;29.94;90929.00;5050775;28;19920;-70
2022/06/24 09:14:16;;;;;;;;;;;;;;;35.68;31.67;90928.22;5051761;28;20362;-71
2022/06/24 09:16:42;;;;;;;;;;;;;;;36.23;28.83;90926.03;5054904;28;20370;-71
2022/06/24 09:19:12;;;;;;;;;;;;;;;35.05;29.54;90927.84;5054706;28;20421;-71
2022/06/24 09:21:41;;;;;;;;;;;;;;;33.84;33.48;90926.44;5053388;28;20370;-70
2022/06/24 09:24:07;;;;;;;;;;;;;;;35.06;31.45;90917.53;5054683;28;19973;-69
2022/06/24 09:26:37;;;;;;;;;;;;;;;32.60;33.32;90915.13;5054747;28;20289;-70
2022/06/24 09:29:03;;;;;;;;;;;;;;;33.15;32.04;90919.13;5054512;28;19912;-71
2022/06/24 09:31:29;;;;;;;;;;;;;;;33.87;32.80;90918.03;5054506;28;19919;-70
2022/06/24 09:33:54;;;;;;;;;;;;;;;35.74;30.59;90911.75;5054536;28;19912;-70
2022/06/24 09:36:25;;;;;;;;;;;;;;;36.40;30.09;90909.81;5054321;28;19943;-70
2022/06/24 09:38:59;;;;;;;;;;;;;;;35.59;30.77;90906.88;5054501;28;20027;-69
2022/06/24 09:41:26;;;;;;;;;;;;;;;35.77;27.98;90906.03;5054324;28;19920;-75
2022/06/24 09:43:52;;;;;;;;;;;;;;;36.64;29.49;90911.84;5054037;28;19970;-71
2022/06/24 09:46:22;;;;;;;;;;;;;;;38.50;29.12;90920.25;5054332;28;20382;-70
2022/06/24 09:48:48;;;;;;;;;;;;;;;37.30;28.66;90915.22;5054117;28;19943;-71
2022/06/24 09:51:15;;;;;;;;;;;;;;;37.32;28.72;90914.75;5054004;28;19924;-71
2022/06/24 09:53:40;;;;;;;;;;;;;;;37.12;28.82;90916.13;5054083;28;19916;-70
2022/06/24 09:56:07;;;;;;;;;;;;;;;37.19;28.41;90921.28;5054073;28;19940;-68
2022/06/24 09:58:36;;;;;;;;;;;;;;;37.52;29.74;90920.41;5054276;28;19928;-68
2022/06/24 10:01:02;;;;;;;;;;;;;;;36.67;32.05;90919.22;5053732;28;19912;-69
2022/06/24 10:03:27;;;;;;;;;;;;;;;33.13;34.46;90926.28;5053677;28;20454;-69
2022/06/24 10:05:54;;;;;;;;;;;;;;;35.02;32.60;90919.66;5053939;28;19924;-68
2022/06/24 10:08:21;;;;;;;;;;;;;;;33.89;34.42;90923.84;5053457;28;19913;-68
2022/06/24 10:10:54;;;;;;;;;;;;;;;29.95;37.45;90923.09;5053726;28;19912;-71
2022/06/24 10:13:19;;;;;;;;;;;;;;;27.73;42.64;90923.88;5053795;28;19912;-70
2022/06/24 10:15:44;;;;;;;;;;;;;;;26.43;45.35;90930.59;5053884;28;19936;-70
2022/06/24 10:18:11;;;;;;;;;;;;;;;25.53;48.52;90929.00;5053914;28;19917;-69
2022/06/24 10:20:40;;;;;;;;;;;;;;;24.54;51.34;90936.50;5053719;28;20043;-69
2022/06/24 10:23:06;;;;;;;;;;;;;;;24.29;52.62;90938.50;5053668;28;20008;-72
2022/06/24 10:25:47;;;;;;;;;;;;;;;26.90;48.75;90941.75;5053509;28;19999;-70
2022/06/24 10:28:12;;;;;;;;;;;;;;;30.30;41.73;90938.72;5053765;28;20386;-70
2022/06/24 10:30:40;;;;;;;;;;;;;;;32.93;37.59;90954.94;5053543;28;19913;-70
2022/06/24 10:33:25;;;;;;;;;;;;;;;35.25;36.26;90946.72;5053668;28;19966;-70
2022/06/24 10:36:05;;;;;;;;;;;;;;;33.30;36.31;90946.97;5053004;28;20006;-70
2022/06/24 10:38:34;;;;;;;;;;;;;;;31.18;36.85;90945.84;5053852;28;20341;-70
2022/06/24 10:41:01;;;;;;;;;;;;;;;30.42;39.55;90942.72;5053442;28;20705;-70
2022/06/24 10:43:33;;;;;;;;;;;;;;;32.92;36.25;90941.59;5053268;28;19923;-70
2022/06/24 10:46:10;;;;;;;;;;;;;;;32.05;37.37;90944.84;5053440;28;19920;-70
2022/06/24 10:48:55;;;;;;;;;;;;;;;31.29;39.93;90935.31;5053367;28;19916;-70
2022/06/24 10:51:21;;;;;;;;;;;;;;;32.15;39.28;90935.47;5053114;28;19952;-69
2022/06/24 10:54:01;;;;;;;;;;;;;;;32.97;36.88;90944.56;5053076;28;19919;-70
2022/06/24 10:56:40;;;;;;;;;;;;;;;34.52;35.91;90943.88;5053205;28;19912;-70
2022/06/24 10:59:06;;;;;;;;;;;;;;;34.96;35.05;90943.66;5053137;28;19917;-70
2022/06/24 11:01:32;;;;;;;;;;;;;;;34.07;36.64;90952.75;5052906;28;19913;-70
2022/06/24 11:03:59;;;;;;;;;;;;;;;33.55;37.06;90952.34;5052997;28;19913;-70
2022/06/24 11:06:24;;;;;;;;;;;;;;;32.74;36.92;90933.94;5052948;28;19923;-70
2022/06/24 11:08:49;;;;;;;;;;;;;;;33.85;34.49;90942.56;5052862;28;19932;-70
2022/06/24 11:11:35;;;;;;;;;;;;;;;32.34;35.92;90941.97;5052666;28;20003;-70
2022/06/24 11:14:20;;;;;;;;;;;;;;;32.89;34.78;90940.53;5052536;28;19916;-70
2022/06/24 11:16:46;;;;;;;;;;;;;;;31.49;37.56;90935.13;5052656;28;20314;-70
2022/06/24 11:19:11;;;;;;;;;;;;;;;31.82;36.38;90937.69;5052746;28;19912;-70
2022/06/24 11:21:44;;;;;;;;;;;;;;;33.93;35.28;90940.31;5052448;28;19913;-70
2022/06/24 11:24:10;;;;;;;;;;;;;;;35.61;34.57;90945.16;5052670;28;19916;-70
2022/06/24 11:26:35;;;;;;;;;;;;;;;37.57;30.68;90941.97;5052569;28;19916;-70
2022/06/24 11:29:00;;;;;;;;;;;;;;;34.41;33.09;90946.31;5052524;28;19920;-70
2022/06/24 11:31:27;;;;;;;;;;;;;;;33.94;33.64;90939.09;5052347;28;19948;-70
2022/06/24 11:33:52;;;;;;;;;;;;;;;33.29;35.79;90945.38;5052984;28;19940;-70
2022/06/24 11:36:21;;;;;;;;;;;;;;;33.42;34.68;90940.59;5055097;28;20367;-70
2022/06/24 11:38:59;;;;;;;;;;;;;;;31.75;37.76;90926.94;5052787;28;20012;-70
2022/06/24 11:41:27;;;;;;;;;;;;;;;32.33;36.33;90927.44;5052174;28;19912;-70
2022/06/24 11:43:52;;;;;;;;;;;;;;;33.29;36.35;90924.09;5058713;28;19920;-69
2022/06/24 11:46:18;;;;;;;;;;;;;;;33.64;36.67;90921.28;5070669;28;19916;-70
2022/06/24 11:48:43;;;;;;;;;;;;;;;33.93;35.31;90920.97;5058836;28;20379;-69
2022/06/24 11:51:18;;;;;;;;;;;;;;;34.39;35.85;90912.84;5052024;28;20330;-69
2022/06/24 11:53:56;;;;;;;;;;;;;;;34.33;35.39;90914.66;5053079;28;19920;-69
2022/06/24 11:56:22;;;;;;;;;;;;;;;33.26;36.27;90915.97;5056357;28;19923;-69
2022/06/24 11:58:48;;;;;;;;;;;;;;;31.53;39.86;90913.00;5060613;28;19912;-69
2022/06/24 12:01:13;;;;;;;;;;;;;;;27.83;44.00;90913.97;5060096;28;20371;-69
2022/06/24 12:03:39;;;;;;;;;;;;;;;28.48;43.75;90919.13;5062189;28;19973;-69
2022/06/24 12:06:04;;;;;;;;;;;;;;;29.28;42.97;90919.91;5052264;28;19912;-69
2022/06/24 12:08:30;;;;;;;;;;;;;;;32.21;38.29;90919.19;5056811;28;20358;-70
2022/06/24 12:10:55;;;;;;;;;;;;;;;32.24;37.65;90921.81;5063159;28;20014;-70
2022/06/24 12:13:25;;;;;;;;;;;;;;;33.33;36.83;90916.50;5063830;28;19928;-69
2022/06/24 12:15:51;;;;;;;;;;;;;;;33.77;36.28;90913.69;5060059;28;20379;-69
2022/06/24 12:18:18;;;;;;;;;;;;;;;35.30;35.22;90914.88;5051684;28;20310;-70
2022/06/24 12:20:53;;;;;;;;;;;;;;;34.76;33.83;90913.66;5061140;28;19920;-70
2022/06/24 12:23:20;;;;;;;;;;;;;;;34.41;35.40;90911.19;5056725;28;19924;-70
2022/06/24 12:25:46;;;;;;;;;;;;;;;34.83;33.69;90919.66;5058346;28;19927;-70
2022/06/24 12:28:13;;;;;;;;;;;;;;;31.56;37.83;90928.63;5051252;28;19916;-69
2022/06/24 12:30:38;;;;;;;;;;;;;;;33.66;34.70;90935.38;5058541;28;20333;-69
2022/06/24 12:33:09;;;;;;;;;;;;;;;35.07;34.29;90919.84;5056377;28;19947;-69
2022/06/24 12:35:37;;;;;;;;;;;;;;;36.24;32.31;90924.03;5053996;28;19920;-69
2022/06/24 12:38:03;;;;;;;;;;;;;;;33.97;34.86;90929.13;5063523;28;19919;-69
2022/06/24 12:40:28;;;;;;;;;;;;;;;32.43;36.91;90925.53;5067572;28;20015;-69
2022/06/24 12:43:07;;;;;;;;;;;;;;;31.13;40.18;90937.34;5070978;28;19974;-69
2022/06/24 12:45:39;;;;;;;;;;;;;;;30.35;40.38;90937.44;5069120;28;19916;-69
2022/06/24 12:51:16;;;;;;;;;;;;;;;32.45;37.90;90932.16;5060897;28;19923;-68
2022/06/24 12:53:49;;;;;;;;;;;;;;;32.61;36.25;90933.97;5058595;28;20011;-69
2022/06/24 12:56:14;;;;;;;;;;;;;;;31.18;38.96;90929.34;5070514;28;19979;-69